Station: Adelaide Airport

  Atmospheric Gas Attenuation - ITU Rec 676-11   --------------- db/100km ---------------
Date Time Temp RH % AH g/m3 Dew Point Wind Direction Speed kph Gust kph Barometer mB Rainfall Since 9am 24GHz 47GHz 76GHz 122GHz 134GHz 241GHz
17 01:40 5.9 94 6.78 5 9 9 1021.3 0 16.0 25.5 36.5 95.4 83.8 286.0
17 01:30 5.7 94 6.69 4.8 9 9 1021.4 0 15.8 25.4 36.2 94.7 82.7 282.4
17 01:20 5.6 97 6.86 5.1 9 9 1021.5 0 16.2 25.7 37.0 96.7 85.2 291.1
17 01:10 5.9 94 6.78 5 9 9 1021.7 0 16.0 25.5 36.5 95.5 83.8 286.1
17 01:00 6.3 94 6.96 5.4 9 9 1021.7 0 16.4 25.7 37.1 97.0 85.8 293.4
17 00:50 6.1 92 6.73 4.9 7 7 1021.8 0 15.9 25.4 36.2 94.7 82.9 283.0
17 00:40 6 94 6.83 5.1 6 7 1021.9 0 16.1 25.6 36.7 95.9 84.4 288.2
17 00:30 6.1 94 6.87 5.2 7 7 1022 0 16.2 25.6 36.8 96.3 84.8 289.8
17 00:20 6.2 95 6.99 5.5 7 7 1022 0 16.5 25.8 37.3 97.5 86.4 295.3
17 00:10 6.5 93 6.98 5.4 6 7 1022.3 0 16.4 25.7 37.1 97.0 85.9 293.7
17 00:00 6.4 94 7.01 5.5 6 9 1022.4 0 16.5 25.8 37.3 97.5 86.5 295.6
16 23:50 6.6 94 7.1 5.7 9 9 1022.4 0 16.7 25.9 37.6 98.3 87.5 299.2
16 23:40 6.2 94 6.92 5.3 1022.4 0 16.3 25.7 37.0 96.7 85.4 292.0
16 23:30 6 94 6.83 5.1 7 9 1022.6 0 16.1 25.6 36.7 96.0 84.4 288.4
16 23:20 5.9 97 7 5.4 9 9 1022.6 0 16.5 25.9 37.5 98.0 86.9 297.0
16 23:10 6.7 94 7.15 5.8 7 7 1022.6 0 16.8 25.9 37.7 98.7 88.1 301.3
16 23:00 7 94 7.29 6.1 2 6 1022.7 0 17.1 26.1 38.2 99.9 89.7 306.9
16 22:50 7.2 94 7.38 6.3 1022.7 0 17.3 26.2 38.5 100.7 90.7 310.5
16 22:40 7.5 93 7.45 6.4 0 0 1022.7 0 17.4 26.2 38.6 101.1 91.3 312.7
16 22:30 7.7 93 7.54 6.6 0 0 1022.6 0 17.6 26.3 38.9 101.8 92.3 316.3
16 22:20 7.6 93 7.5 6.5 6 7 1022.5 0 17.5 26.2 38.8 101.5 91.9 314.7
16 22:10 7.7 91 7.38 6.4 7 7 1022.5 0 17.2 26.0 38.2 100.0 90.1 308.5
16 22:00 7.3 93 7.35 6.2 9 9 1022.6 0 17.2 26.1 38.3 100.2 90.2 308.6
16 21:50 7 94 7.29 6.1 9 9 1022.9 0 17.1 26.1 38.2 99.9 89.7 307.0
16 21:40 6.7 93 7.07 5.6 13 13 1022.9 0 16.6 25.8 37.4 97.8 87.0 297.5
16 21:30 6.5 95 7.13 5.8 15 15 1022.9 0 16.8 26.0 37.8 98.8 88.1 301.1
16 21:20 6.9 94 7.24 6 7 7 1023.4 0 17.0 26.0 38.1 99.6 89.2 305.1
16 21:10 7.5 93 7.45 6.4 0 0 1023.4 0 17.4 26.2 38.6 101.1 91.4 312.9
16 21:00 7 99 7.67 6.8 6 9 1023.5 0 17.9 26.8 39.8 104.3 95.1 325.8
16 20:50 8.8 90 7.84 7.3 7 7 1023.4 0 18.2 26.5 39.6 103.8 95.2 326.5
16 20:40 8.3 93 7.84 7.2 0 0 1023.4 0 18.2 26.7 39.9 104.5 95.8 328.6
16 20:30 8.1 96 7.99 7.5 7 9 1023.2 0 18.5 27.0 40.6 106.4 98.2 336.8
16 20:20 9.5 89 8.1 7.8 7 7 1023.1 0 18.7 26.7 40.4 105.8 97.9 336.1
16 20:10 8.8 91 7.92 7.5 9 9 1023.2 0 18.4 26.6 40.0 104.7 96.3 330.3
16 20:00 8.5 90 7.69 7 9 9 1023.2 0 17.9 26.3 39.2 102.5 93.5 320.4
16 19:50 7.4 93 7.4 6.3 9 9 1023.1 0 17.3 26.2 38.5 100.7 90.8 310.8
16 19:40 8.5 93 7.94 7.4 1023.3 0 18.4 26.8 40.2 105.3 97.0 332.6
16 19:30 9.1 90 7.99 7.6 0 0 1023.4 0 18.5 26.7 40.1 105.1 96.9 332.5
16 19:20 10.6 90 8.79 9 0 0 1023.3 0 20.1 27.6 42.7 112.1 106.1 364.8
16 19:10 10.8 89 8.8 9 0 0 1023.3 0 20.2 27.5 42.6 111.9 105.9 364.3
16 19:00 11 86 8.61 8.8 0 0 1023.2 0 19.7 27.1 41.7 109.4 103.0 354.1
16 18:50 10.9 89 8.85 9.1 7 7 1023.1 0 20.3 27.6 42.8 112.3 106.5 366.3
16 18:40 10.9 89 8.85 9.1 7 7 1023.1 0 20.3 27.6 42.8 112.3 106.5 366.3
16 18:30 10.8 87 8.6 8.8 1023 0 19.7 27.2 41.8 109.6 103.1 354.5
16 18:20 10.2 90 8.57 8.6 7 9 1022.9 0 19.7 27.3 42.0 110.1 103.5 355.8
16 18:10 10.2 88 8.38 8.3 7 9 1022.9 0 19.3 27.0 41.2 107.9 100.9 346.5
16 18:00 10.5 89 8.63 8.7 7 7 1022.9 0 19.8 27.3 42.1 110.3 103.9 357.3
16 17:50 10.6 86 8.4 8.3 9 9 1022.8 0 19.3 26.9 41.0 107.6 100.6 345.7
16 17:40 10.7 86 8.45 8.4 11 11 1022.8 0 19.4 26.9 41.2 108.0 101.2 347.7
16 17:30 11.1 83 8.36 8.4 9 11 1022.8 0 19.2 26.7 40.6 106.5 99.4 341.6
16 17:20 11.3 81 8.26 8.2 7 9 1022.9 0 19.0 26.4 40.1 105.1 97.8 335.9
16 17:10 11.5 79 8.16 8 9 9 1022.9 0 18.7 26.2 39.6 103.7 96.2 330.4
16 17:00 11.8 79 8.32 8.3 11 11 1022.8 0 19.1 26.4 40.1 105.1 98.0 336.6
16 16:50 12.3 77 8.36 8.4 7 9 1022.9 0 19.1 26.3 40.0 104.9 97.9 336.4
16 16:40 12.5 76 8.36 8.5 11 13 1022.9 0 19.1 26.2 39.9 104.6 97.6 335.5
16 16:30 12.7 79 8.79 9.1 13 13 1022.9 0 20.0 26.9 41.6 109.0 103.2 355.0
16 16:20 12.9 76 8.57 8.9 9 11 1022.9 0 19.6 26.5 40.6 106.3 99.9 343.7
16 16:10 13.1 72 8.22 8.2 11 13 1023.1 0 18.8 25.9 39.1 102.3 95.0 326.5
16 16:00 13.2 71 8.15 8.1 17 17 1023.1 0 18.6 25.7 38.7 101.4 94.0 322.9
16 15:50 13.6 68 8 7.9 15 17 1023.1 0 18.3 25.4 37.9 99.3 91.6 314.4
16 15:40 13.7 66 7.82 7.6 11 13 1023.1 0 17.9 25.0 37.2 97.3 89.1 305.8
16 15:30 13.7 70 8.29 8.3 13 15 1023.1 0 18.9 25.8 39.0 102.3 95.2 327.3
16 15:20 14.2 67 8.18 8.2 13 15 1023.1 0 18.7 25.5 38.4 100.5 93.2 320.2
16 15:10 14.1 66 8.01 8 11 13 1023.1 0 18.3 25.2 37.7 98.8 91.1 312.8
16 15:00 13.8 66 7.86 7.7 13 15 1023 0 18.0 25.1 37.3 97.6 89.5 307.2
16 14:50 13.8 67 7.98 7.9 13 15 1022.9 0 18.3 25.3 37.8 98.9 91.0 312.6
16 14:40 13.7 66 7.82 7.6 15 15 1023 0 17.9 25.0 37.2 97.3 89.1 305.8
16 14:30 13.7 67 7.93 7.8 15 15 1023.1 0 18.2 25.2 37.6 98.5 90.5 310.8
16 14:20 13.9 67 8.03 8 15 17 1023 0 18.4 25.3 37.9 99.3 91.6 314.5
16 14:10 13.9 64 7.67 7.3 15 17 1023 0 17.6 24.7 36.5 95.5 86.9 298.2
16 14:00 13.9 66 7.91 7.8 15 17 1023.1 0 18.1 25.1 37.4 98.0 90.0 309.1
16 13:50 14.3 63 7.74 7.3 17 19 1023.1 0 17.7 24.7 36.6 95.8 87.4 299.9
16 13:40 14.1 60 7.28 6.4 17 17 1023.1 0 16.8 24.1 34.9 91.3 81.8 280.1
16 13:30 14.1 60 7.28 6.4 15 17 1023.1 0 16.8 24.1 34.9 91.3 81.8 280.1
16 13:20 14.6 58 7.26 6.5 15 17 1023.3 0 16.7 23.9 34.6 90.5 81.0 277.6
16 13:10 14.5 59 7.34 6.6 13 15 1023.4 0 16.9 24.1 35.0 91.4 82.1 281.5
16 13:00 14.5 58 7.21 6.4 15 15 1023.5 0 16.6 23.9 34.5 90.1 80.5 275.8
16 12:50 14.4 57 7.05 6 13 15 1023.6 0 16.3 23.7 33.9 88.6 78.6 269.1
16 12:40 14.3 59 7.25 6.4 11 13 1023.8 0 16.7 24.0 34.7 90.8 81.2 278.3
16 12:30 14.3 58 7.13 6.1 11 13 1024.1 0 16.4 23.8 34.3 89.6 79.7 273.1
16 12:20 14.4 58 7.17 6.2 0 2 1024.3 0 16.5 23.9 34.4 89.9 80.2 274.5
16 12:10 14.3 56 6.88 5.8 7 7 1024.4 0 15.9 23.5 33.4 87.1 76.7 262.2
16 12:00 14.5 57 7.09 6.1 9 11 1024.6 0 16.3 23.7 34.1 89.0 79.1 270.8
16 11:50 15.3 49 6.4 4.8 11 11 1024.7 0 14.8 22.5 31.2 81.3 69.9 238.6
16 11:40 14.8 49 6.21 4.4 9 11 1024.9 0 14.5 22.4 30.7 80.0 68.1 232.1
16 11:30 14.9 49 6.24 4.5 1025.1 0 14.5 22.4 30.8 80.2 68.4 233.1
16 11:20 14.7 49 6.17 4.2 9 11 1025.2 0 14.4 22.3 30.6 79.7 67.7 230.8
16 11:10 14.6 50 6.26 4.4 9 13 1025.3 0 14.6 22.5 31.0 80.7 68.9 234.9
16 11:00 14.4 52 6.43 4.7 9 11 1025.4 0 14.9 22.8 31.7 82.6 71.1 242.7
16 10:50 14.2 50 6.11 4.1 13 13 1025.4 0 14.3 22.4 30.6 79.7 67.4 229.7
16 10:40 13.6 50 5.88 3.5 13 15 1025.5 0 13.8 22.2 30.0 78.0 65.1 221.7
16 10:30 13.6 50 5.88 3.5 13 15 1025.6 0 13.8 22.2 30.0 78.0 65.1 221.7
16 10:20 13.3 52 6.01 3.7 13 15 1025.6 0 14.1 22.5 30.6 79.6 67.0 228.1
16 10:10 13.1 55 6.28 4.3 13 15 1025.5 0 14.7 22.9 31.6 82.5 70.4 240.2
16 10:00 12.5 57 6.27 4.3 11 13 1025.4 0 14.7 23.0 31.8 83.0 70.8 241.6
16 09:50 12.1 57 6.11 4 11 11 1025.4 0 14.4 22.9 31.4 81.8 69.2 235.8
16 09:40 11.7 59 6.17 4.1 9 9 1025.3 0 14.5 23.1 31.8 82.8 70.3 239.6
16 09:30 10.9 66 6.57 4.9 9 11 1025.2 0 15.4 23.9 33.6 87.7 76.1 259.8
16 09:20 10.3 70 6.71 5.2 7 9 1025.1 0 15.7 24.3 34.4 89.9 78.5 268.1
16 09:10 9.7 74 6.82 5.3 0 0 1025.2 0 16.0 24.6 35.1 91.7 80.5 275.2

Last Refresh: 17-Jul-2020 01:52:55

Most of the information presented on this site is sourced from the Bureau of Meteorology.  Copyright in all material sourced from the Bureau of Meteorology resides with the Commonwealth of Australia.